createdAt,value
2022-09-06T00:00:34.315Z,5.85
2022-09-06T00:01:36.038Z,6.40
2022-09-06T00:02:37.798Z,5.80
2022-09-06T00:03:40.120Z,5.90
2022-09-06T00:04:41.836Z,5.57
2022-09-06T00:05:48.295Z,5.68
2022-09-06T00:06:49.967Z,6.00
2022-09-06T00:07:51.660Z,6.10
2022-09-06T00:08:53.299Z,5.70
2022-09-06T00:09:55.145Z,5.57
2022-09-06T00:11:01.108Z,5.85
2022-09-06T00:12:03.481Z,6.10
2022-09-06T00:13:07.103Z,6.03
2022-09-06T00:14:08.797Z,5.47
2022-09-06T00:15:10.882Z,5.95
2022-09-06T00:16:27.271Z,5.93
2022-09-06T00:17:32.913Z,5.40
2022-09-06T00:18:34.802Z,5.57
2022-09-06T00:19:36.492Z,6.13
2022-09-06T00:20:41.410Z,5.97
2022-09-06T00:21:43.106Z,5.47
2022-09-06T00:22:44.838Z,6.20
2022-09-06T00:23:46.935Z,5.90
2022-09-06T00:24:48.609Z,5.68
2022-09-06T00:25:50.286Z,5.97
2022-09-06T00:26:51.964Z,6.35
2022-09-06T00:27:58.315Z,6.20
2022-09-06T00:29:00.015Z,6.22
2022-09-06T00:30:01.936Z,6.15
2022-09-06T00:31:16.873Z,6.25
2022-09-06T00:32:18.632Z,6.60
2022-09-06T00:33:20.344Z,6.60
2022-09-06T00:34:22.032Z,6.13
2022-09-06T00:35:25.653Z,6.85
2022-09-06T00:36:27.344Z,6.25
2022-09-06T00:37:29.060Z,6.05
2022-09-06T00:38:31.000Z,6.07
2022-09-06T00:39:32.718Z,6.10
2022-09-06T00:40:35.759Z,6.25
2022-09-06T00:41:37.452Z,6.07
2022-09-06T00:42:39.206Z,6.72
2022-09-06T00:43:41.859Z,6.18
2022-09-06T00:44:43.560Z,6.27
2022-09-06T00:45:45.410Z,6.13
2022-09-06T00:46:49.714Z,6.10
2022-09-06T00:47:51.724Z,5.85
2022-09-06T00:48:58.853Z,5.90
2022-09-06T00:50:01.225Z,6.15
2022-09-06T00:51:05.914Z,5.80
2022-09-06T00:52:13.725Z,6.22
2022-09-06T00:53:16.223Z,6.10
2022-09-06T00:54:17.970Z,6.07
2022-09-06T00:55:21.166Z,6.17
2022-09-06T00:56:25.089Z,6.38
2022-09-06T00:57:29.038Z,5.60
2022-09-06T00:58:30.803Z,6.18
2022-09-06T00:59:36.013Z,6.07
2022-09-06T01:00:38.116Z,6.00
2022-09-06T01:01:39.885Z,6.30
2022-09-06T01:02:42.032Z,5.88
2022-09-06T01:03:43.947Z,5.68
2022-09-06T01:04:46.595Z,5.57
2022-09-06T01:05:54.753Z,5.47
2022-09-06T01:07:21.460Z,5.80
2022-09-06T01:08:35.125Z,5.78
2022-09-06T01:09:51.964Z,5.95
2022-09-06T01:11:04.737Z,5.88
2022-09-06T01:12:25.494Z,5.43
2022-09-06T01:13:53.212Z,5.47
2022-09-06T01:15:30.270Z,5.13
2022-09-06T01:17:02.178Z,5.70
2022-09-06T01:18:23.623Z,5.30
2022-09-06T01:19:55.286Z,5.50
2022-09-06T01:21:24.394Z,5.55
2022-09-06T01:22:44.181Z,5.15
2022-09-06T01:24:04.716Z,5.65
2022-09-06T01:25:33.918Z,5.13
2022-09-06T01:27:12.774Z,5.13
2022-09-06T01:28:35.475Z,5.50
2022-09-06T01:29:43.443Z,5.00
2022-09-06T01:30:52.283Z,5.35
2022-09-06T01:32:03.664Z,5.60
2022-09-06T01:33:18.327Z,5.40
2022-09-06T01:34:47.249Z,4.97
2022-09-06T01:35:54.974Z,5.05
2022-09-06T01:37:10.574Z,5.40
2022-09-06T01:38:14.042Z,4.88
2022-09-06T01:39:31.949Z,4.80
2022-09-06T01:40:36.470Z,5.25
2022-09-06T01:41:38.370Z,5.07
2022-09-06T01:42:42.072Z,5.20
2022-09-06T01:43:48.052Z,4.88
2022-09-06T01:45:09.018Z,5.50
2022-09-06T01:46:28.955Z,5.45
2022-09-06T01:47:48.559Z,5.28
2022-09-06T01:48:53.204Z,5.53
2022-09-06T01:50:10.383Z,5.28
2022-09-06T01:51:19.053Z,5.03
2022-09-06T01:52:42.520Z,4.70
2022-09-06T01:54:00.757Z,5.32
2022-09-06T01:55:34.696Z,4.85
2022-09-06T01:56:45.338Z,5.07
2022-09-06T01:58:25.921Z,5.03
2022-09-06T01:59:40.970Z,5.07
2022-09-06T02:01:03.065Z,5.15
2022-09-06T02:02:24.661Z,5.55
2022-09-06T02:03:38.341Z,5.13
2022-09-06T02:04:56.068Z,4.82
2022-09-06T02:06:09.559Z,5.47
2022-09-06T02:07:32.734Z,5.22
2022-09-06T02:08:40.430Z,5.32
2022-09-06T02:09:45.276Z,5.63
2022-09-06T02:10:59.334Z,5.23
2022-09-06T02:12:04.189Z,4.95
2022-09-06T02:13:08.448Z,5.03
2022-09-06T02:14:20.652Z,5.00
2022-09-06T02:15:34.842Z,5.53
2022-09-06T02:16:39.611Z,5.25
2022-09-06T02:17:50.538Z,5.05
2022-09-06T02:19:04.568Z,5.50
2022-09-06T02:20:16.282Z,4.95
2022-09-06T02:21:22.365Z,5.03
2022-09-06T02:22:28.331Z,5.33
2022-09-06T02:23:36.351Z,4.90
2022-09-06T02:24:40.751Z,5.10
2022-09-06T02:25:49.863Z,6.10
2022-09-06T02:26:51.801Z,5.15
2022-09-06T02:27:55.028Z,5.10
2022-09-06T02:28:57.590Z,5.55
2022-09-06T02:29:59.419Z,4.75
2022-09-06T02:31:12.213Z,5.47
2022-09-06T02:32:20.234Z,5.18
2022-09-06T02:33:26.362Z,5.27
2022-09-06T02:34:29.096Z,5.22
2022-09-06T02:35:31.100Z,5.70
2022-09-06T02:36:35.553Z,5.32
2022-09-06T02:37:37.472Z,5.18
2022-09-06T02:38:41.398Z,4.95
2022-09-06T02:39:43.565Z,5.38
2022-09-06T02:40:46.109Z,5.15
2022-09-06T02:41:48.275Z,5.13
2022-09-06T02:42:49.988Z,5.30
2022-09-06T02:43:51.713Z,5.30
2022-09-06T02:44:53.407Z,5.22
2022-09-06T02:45:55.144Z,5.38
2022-09-06T02:46:57.382Z,5.50
2022-09-06T02:47:59.176Z,5.15
2022-09-06T02:49:01.021Z,5.18
2022-09-06T02:50:02.823Z,5.18
2022-09-06T02:51:06.524Z,4.78
2022-09-06T02:52:08.256Z,5.07
2022-09-06T02:53:12.969Z,4.50
2022-09-06T02:54:14.946Z,4.77
2022-09-06T02:55:16.667Z,4.60
2022-09-06T02:56:18.351Z,5.07
2022-09-06T02:57:20.033Z,4.47
2022-09-06T02:58:21.725Z,4.72
2022-09-06T02:59:23.501Z,4.88
2022-09-06T03:00:26.120Z,4.60
2022-09-06T03:01:27.893Z,4.88
2022-09-06T03:02:29.665Z,4.75
2022-09-06T03:03:31.447Z,4.80
2022-09-06T03:04:33.126Z,5.20
2022-09-06T03:05:34.850Z,5.05
2022-09-06T03:06:36.533Z,4.55
2022-09-06T03:07:38.192Z,4.57
2022-09-06T03:08:39.888Z,4.57
2022-09-06T03:09:41.705Z,4.93
2022-09-06T03:10:52.671Z,4.38
2022-09-06T03:11:54.367Z,4.20
2022-09-06T03:12:56.297Z,5.00
2022-09-06T03:13:58.046Z,4.72
2022-09-06T03:14:59.722Z,4.47
2022-09-06T03:16:01.636Z,4.50
2022-09-06T03:17:04.316Z,4.75
2022-09-06T03:18:06.120Z,4.60
2022-09-06T03:19:07.860Z,4.82
2022-09-06T03:20:11.897Z,4.70
2022-09-06T03:21:13.748Z,4.40
2022-09-06T03:22:15.608Z,4.38
2022-09-06T03:23:18.950Z,4.43
2022-09-06T03:24:21.265Z,4.97
2022-09-06T03:25:22.993Z,4.80
2022-09-06T03:26:25.073Z,4.80
2022-09-06T03:27:26.840Z,4.68
2022-09-06T03:28:28.766Z,5.03
2022-09-06T03:29:30.606Z,4.35
2022-09-06T03:30:32.368Z,4.78
2022-09-06T03:31:34.102Z,4.57
2022-09-06T03:32:36.212Z,4.57
2022-09-06T03:33:37.975Z,4.18
2022-09-06T03:34:39.674Z,4.75
2022-09-06T03:35:47.272Z,4.50
2022-09-06T03:36:49.021Z,4.50
2022-09-06T03:37:50.732Z,4.57
2022-09-06T03:38:54.080Z,4.50
2022-09-06T03:39:55.901Z,4.40
2022-09-06T03:40:57.748Z,4.60
2022-09-06T03:41:59.441Z,5.03
2022-09-06T03:43:01.139Z,4.50
2022-09-06T03:44:02.946Z,4.45
2022-09-06T03:45:05.766Z,4.63
2022-09-06T03:46:07.566Z,4.27
2022-09-06T03:47:09.321Z,4.43
2022-09-06T03:48:11.092Z,4.57
2022-09-06T03:49:13.108Z,4.40
2022-09-06T03:50:14.995Z,4.78
2022-09-06T03:51:16.886Z,4.95
2022-09-06T03:52:18.588Z,4.40
2022-09-06T03:53:21.294Z,4.90
2022-09-06T03:54:24.493Z,4.70
2022-09-06T03:55:26.222Z,4.63
2022-09-06T03:56:28.166Z,4.33
2022-09-06T03:57:29.879Z,4.65
2022-09-06T03:58:32.518Z,4.57
2022-09-06T03:59:34.527Z,4.55
2022-09-06T04:00:36.558Z,4.93
2022-09-06T04:01:38.297Z,4.50
2022-09-06T04:02:40.296Z,4.38
2022-09-06T04:03:42.051Z,4.95
2022-09-06T04:04:43.742Z,5.15
2022-09-06T04:05:46.663Z,5.10
2022-09-06T04:06:48.364Z,4.60
2022-09-06T04:07:50.060Z,4.80
2022-09-06T04:08:51.781Z,4.75
2022-09-06T04:09:53.467Z,5.00
2022-09-06T04:10:56.675Z,4.63
2022-09-06T04:11:58.384Z,4.93
2022-09-06T04:13:00.089Z,4.78
2022-09-06T04:14:01.760Z,4.80
2022-09-06T04:15:03.794Z,4.75
2022-09-06T04:16:06.213Z,4.53
2022-09-06T04:17:07.897Z,4.63
2022-09-06T04:18:09.647Z,4.80
2022-09-06T04:19:11.360Z,4.35
2022-09-06T04:20:13.909Z,5.00
2022-09-06T04:21:15.627Z,4.90
2022-09-06T04:22:17.310Z,4.18
2022-09-06T04:23:19.502Z,4.90
2022-09-06T04:24:21.204Z,5.03
2022-09-06T04:25:22.935Z,4.53
2022-09-06T04:26:24.764Z,4.93
2022-09-06T04:27:26.434Z,5.20
2022-09-06T04:28:28.906Z,4.50
2022-09-06T04:29:30.709Z,4.70
2022-09-06T04:30:32.667Z,5.00
2022-09-06T04:31:34.401Z,4.53
2022-09-06T04:32:36.315Z,4.90
2022-09-06T04:33:38.690Z,4.68
2022-09-06T04:34:40.399Z,4.50
2022-09-06T04:35:42.070Z,4.53
2022-09-06T04:36:48.187Z,4.50
2022-09-06T04:37:50.273Z,4.73
2022-09-06T04:38:52.129Z,4.40
2022-09-06T04:39:54.262Z,4.55
2022-09-06T04:40:56.145Z,4.50
2022-09-06T04:41:57.860Z,4.80
2022-09-06T04:42:59.562Z,4.53
2022-09-06T04:44:01.347Z,4.25
2022-09-06T04:45:03.340Z,5.40
2022-09-06T04:46:26.282Z,4.60
2022-09-06T04:47:28.083Z,4.47
2022-09-06T04:48:29.768Z,4.00
2022-09-06T04:49:31.577Z,4.78
2022-09-06T04:50:33.277Z,4.50
2022-09-06T04:51:34.949Z,4.60
2022-09-06T04:52:36.653Z,4.25
2022-09-06T04:53:38.327Z,5.00
2022-09-06T04:54:40.038Z,4.75
2022-09-06T04:55:41.734Z,4.75
2022-09-06T04:56:43.419Z,4.30
2022-09-06T04:57:48.435Z,4.70
2022-09-06T04:58:54.493Z,4.40
2022-09-06T04:59:56.150Z,4.75
2022-09-06T05:00:57.927Z,4.70
2022-09-06T05:01:59.798Z,4.60
2022-09-06T05:03:01.568Z,4.38
2022-09-06T05:04:03.276Z,4.55
2022-09-06T05:05:05.599Z,4.40
2022-09-06T05:06:09.864Z,4.68
2022-09-06T05:07:11.624Z,4.47
2022-09-06T05:08:13.320Z,4.38
2022-09-06T05:09:15.404Z,4.43
2022-09-06T05:10:17.141Z,4.70
2022-09-06T05:11:19.646Z,4.32
2022-09-06T05:12:21.325Z,4.40
2022-09-06T05:13:23.094Z,4.80
2022-09-06T05:14:24.987Z,4.05
2022-09-06T05:15:26.693Z,4.45
2022-09-06T05:16:28.538Z,4.75
2022-09-06T05:17:30.996Z,4.90
2022-09-06T05:18:33.608Z,4.55
2022-09-06T05:19:35.326Z,4.77
2022-09-06T05:20:37.015Z,4.25
2022-09-06T05:21:39.008Z,4.32
2022-09-06T05:22:41.421Z,3.90
2022-09-06T05:23:43.214Z,4.40
2022-09-06T05:24:45.061Z,4.47
2022-09-06T05:25:46.943Z,4.68
2022-09-06T05:26:48.629Z,4.47
2022-09-06T05:27:50.341Z,4.13
2022-09-06T05:28:52.056Z,4.50
2022-09-06T05:29:53.742Z,4.63
2022-09-06T05:31:10.114Z,4.80
2022-09-06T05:32:11.799Z,4.40
2022-09-06T05:33:18.668Z,4.78
2022-09-06T05:34:20.403Z,4.40
2022-09-06T05:35:22.151Z,4.68
2022-09-06T05:36:24.644Z,4.53
2022-09-06T05:37:26.407Z,4.35
2022-09-06T05:38:29.692Z,4.68
2022-09-06T05:39:31.647Z,4.45
2022-09-06T05:40:33.390Z,4.37
2022-09-06T05:41:35.070Z,4.60
2022-09-06T05:42:36.852Z,4.22
2022-09-06T05:43:38.592Z,3.95
2022-09-06T05:44:40.489Z,4.45
2022-09-06T05:45:42.208Z,4.70
2022-09-06T05:46:45.318Z,3.97
2022-09-06T05:47:47.019Z,4.18
2022-09-06T05:49:04.834Z,4.07
2022-09-06T05:50:07.894Z,4.10
2022-09-06T05:51:14.191Z,4.30
2022-09-06T05:52:17.352Z,4.05
2022-09-06T05:53:19.032Z,3.80
2022-09-06T05:54:20.948Z,4.00
2022-09-06T05:55:22.852Z,3.90
2022-09-06T05:56:24.811Z,3.72
2022-09-06T05:57:26.654Z,3.92
2022-09-06T05:58:28.477Z,3.92
2022-09-06T05:59:30.325Z,3.63
2022-09-06T06:00:32.052Z,3.83
2022-09-06T06:01:33.766Z,4.23
2022-09-06T06:02:35.527Z,3.90
2022-09-06T06:03:37.330Z,3.90
2022-09-06T06:04:39.042Z,3.97
2022-09-06T06:05:40.724Z,4.10
2022-09-06T06:06:42.606Z,3.63
2022-09-06T06:07:44.426Z,3.53
2022-09-06T06:08:46.382Z,3.50
2022-09-06T06:09:48.069Z,3.60
2022-09-06T06:10:49.750Z,3.80
2022-09-06T06:11:51.472Z,3.77
2022-09-06T06:12:53.141Z,3.67
2022-09-06T06:13:54.983Z,3.50
2022-09-06T06:14:56.651Z,3.60
2022-09-06T06:15:58.335Z,4.00
2022-09-06T06:17:00.341Z,3.95
2022-09-06T06:18:02.068Z,3.67
2022-09-06T06:19:03.832Z,4.00
2022-09-06T06:20:06.113Z,3.45
2022-09-06T06:21:24.481Z,3.67
2022-09-06T06:22:26.167Z,3.50
2022-09-06T06:23:28.025Z,3.80
2022-09-06T06:24:29.716Z,3.45
2022-09-06T06:25:31.402Z,3.95
2022-09-06T06:26:35.708Z,3.80
2022-09-06T06:27:37.856Z,3.80
2022-09-06T06:28:40.152Z,3.67
2022-09-06T06:29:41.860Z,3.70
2022-09-06T06:30:43.533Z,3.47
2022-09-06T06:31:45.316Z,4.05
2022-09-06T06:32:47.008Z,3.70
2022-09-06T06:33:49.417Z,3.90
2022-09-06T06:34:51.201Z,3.67
2022-09-06T06:36:00.733Z,3.63
2022-09-06T06:37:02.671Z,3.50
2022-09-06T06:38:04.352Z,3.40
2022-09-06T06:39:08.401Z,3.63
2022-09-06T06:40:10.563Z,3.50
2022-09-06T06:41:14.977Z,3.35
2022-09-06T06:42:16.644Z,3.35
2022-09-06T06:43:18.447Z,2.97
2022-09-06T06:44:20.130Z,3.47
2022-09-06T06:45:22.215Z,3.55
2022-09-06T06:46:26.640Z,3.58
2022-09-06T06:47:28.320Z,3.47
2022-09-06T06:48:30.041Z,3.60
2022-09-06T06:49:31.802Z,3.40
2022-09-06T06:50:33.535Z,3.50
2022-09-06T06:51:39.497Z,3.67
2022-09-06T06:52:41.260Z,3.47
2022-09-06T06:53:44.325Z,3.57
2022-09-06T06:54:46.131Z,3.10
2022-09-06T06:55:48.503Z,3.67
2022-09-06T06:56:50.239Z,3.17
2022-09-06T06:57:52.295Z,3.55
2022-09-06T06:58:57.437Z,3.47
2022-09-06T06:59:59.264Z,3.10
2022-09-06T07:01:01.510Z,3.03
2022-09-06T07:02:03.400Z,3.30
2022-09-06T07:03:05.544Z,3.30
2022-09-06T07:04:08.711Z,3.57
2022-09-06T07:08:07.776Z,3.30
2022-09-06T07:09:09.490Z,3.35
2022-09-06T07:11:33.122Z,3.03
2022-09-06T07:12:34.804Z,3.25
2022-09-06T07:13:37.085Z,3.45
2022-09-06T07:14:38.798Z,3.17
2022-09-06T07:15:40.460Z,3.10
2022-09-06T07:16:42.502Z,3.22
2022-09-06T07:17:44.391Z,3.25
2022-09-06T07:18:46.262Z,3.45
2022-09-06T07:22:37.106Z,3.20
2022-09-06T07:25:00.801Z,3.47
2022-09-06T07:26:03.460Z,3.40
2022-09-06T07:28:26.911Z,3.22
2022-09-06T07:29:28.683Z,3.60
2022-09-06T07:30:34.954Z,3.40
2022-09-06T07:33:00.899Z,3.20
2022-09-06T07:34:05.084Z,3.40
2022-09-06T07:35:07.269Z,3.25
2022-09-06T07:36:09.361Z,3.28
2022-09-06T07:37:11.026Z,3.10
2022-09-06T07:38:12.693Z,3.30
2022-09-06T07:39:14.366Z,3.55
2022-09-06T07:40:16.140Z,3.40
2022-09-06T07:41:19.315Z,3.40
2022-09-06T07:42:21.061Z,2.85
2022-09-06T07:43:23.257Z,3.40
2022-09-06T07:44:25.048Z,3.42
2022-09-06T07:45:27.324Z,3.08
2022-09-06T07:46:29.057Z,3.40
2022-09-06T07:48:52.456Z,2.80
2022-09-06T07:51:18.274Z,3.20
2022-09-06T07:53:42.693Z,3.00
2022-09-06T07:54:44.378Z,3.33
2022-09-06T07:55:46.113Z,3.00
2022-09-06T07:56:47.824Z,3.13
2022-09-06T07:57:49.506Z,3.35
2022-09-06T07:58:52.794Z,3.10
2022-09-06T07:59:54.493Z,2.90
2022-09-06T08:01:17.657Z,2.97
2022-09-06T08:02:19.754Z,3.03
2022-09-06T08:03:21.610Z,3.15
2022-09-06T08:04:23.494Z,3.10
2022-09-06T08:09:34.250Z,2.95
2022-09-06T08:10:35.945Z,2.90
2022-09-06T08:11:38.446Z,3.10
2022-09-06T08:12:40.183Z,3.10
2022-09-06T08:13:42.346Z,2.97
2022-09-06T08:14:44.136Z,3.13
2022-09-06T08:15:45.898Z,3.13
2022-09-06T08:16:47.764Z,3.40
2022-09-06T08:17:50.752Z,3.25
2022-09-06T08:19:00.355Z,3.50
2022-09-06T08:20:04.325Z,3.03
2022-09-06T08:21:12.657Z,3.25
2022-09-06T08:22:14.829Z,2.97
2022-09-06T08:23:16.500Z,2.90
2022-09-06T08:24:18.176Z,2.80
2022-09-06T08:25:19.882Z,2.90
2022-09-06T08:26:23.789Z,2.85
2022-09-06T08:27:25.749Z,2.92
2022-09-06T08:28:28.928Z,2.80
2022-09-06T08:29:30.723Z,2.70
2022-09-06T08:30:33.431Z,2.78
2022-09-06T08:31:37.835Z,3.00
2022-09-06T08:32:41.231Z,2.90
2022-09-06T08:33:44.228Z,2.88
2022-09-06T08:34:45.899Z,2.70
2022-09-06T08:36:00.153Z,2.85
2022-09-06T08:37:01.857Z,2.70
2022-09-06T08:38:05.420Z,2.80
2022-09-06T08:39:11.485Z,2.70
2022-09-06T08:40:15.523Z,2.70
2022-09-06T08:41:17.165Z,2.70
2022-09-06T08:42:18.886Z,2.50
2022-09-06T08:43:22.478Z,2.80
2022-09-06T08:44:57.031Z,2.92
2022-09-06T08:45:59.585Z,2.58
2022-09-06T08:47:05.996Z,2.83
2022-09-06T08:48:07.826Z,3.00
2022-09-06T08:49:10.315Z,3.17
2022-09-06T08:50:12.061Z,3.10
2022-09-06T08:51:38.563Z,2.40
2022-09-06T08:53:13.587Z,3.03
2022-09-06T08:54:24.746Z,3.20
2022-09-06T08:55:37.414Z,3.10
2022-09-06T08:56:54.060Z,2.67
2022-09-06T08:58:42.746Z,2.80
2022-09-06T08:59:44.618Z,2.60
2022-09-06T09:00:51.677Z,2.65
2022-09-06T09:01:59.651Z,2.30
2022-09-06T09:03:17.011Z,2.25
2022-09-06T09:04:22.843Z,2.60
2022-09-06T09:05:34.080Z,2.70
2022-09-06T09:06:36.115Z,2.50
2022-09-06T09:07:53.241Z,2.47
2022-09-06T09:09:13.220Z,2.63
2022-09-06T09:10:27.839Z,2.53
2022-09-06T09:11:30.012Z,2.55
2022-09-06T09:12:36.929Z,2.30
2022-09-06T09:13:46.718Z,2.55
2022-09-06T09:14:54.384Z,2.55
2022-09-06T09:15:56.219Z,2.50
2022-09-06T09:17:22.263Z,2.42
2022-09-06T09:18:28.072Z,2.60
2022-09-06T09:19:33.439Z,2.60
2022-09-06T09:20:37.002Z,2.53
2022-09-06T09:21:40.567Z,2.42
2022-09-06T09:22:42.959Z,2.90
2022-09-06T09:23:51.809Z,2.92
2022-09-06T09:24:56.937Z,2.50
2022-09-06T09:26:14.151Z,2.60
2022-09-06T09:27:20.366Z,2.35
2022-09-06T09:28:24.188Z,2.65
2022-09-06T09:29:29.442Z,2.78
2022-09-06T09:30:54.958Z,2.67
2022-09-06T09:31:57.261Z,2.67
2022-09-06T09:32:59.438Z,2.70
2022-09-06T09:34:07.356Z,2.90
2022-09-06T09:35:18.094Z,2.50
2022-09-06T09:36:22.490Z,2.60
2022-09-06T09:38:51.644Z,2.50
2022-09-06T09:39:55.382Z,2.72
2022-09-06T09:41:03.352Z,2.25
2022-09-06T09:42:05.779Z,2.50
2022-09-06T09:43:20.785Z,2.50
2022-09-06T09:44:28.100Z,2.58
2022-09-06T09:45:30.964Z,2.33
2022-09-06T09:46:35.009Z,2.75
2022-09-06T09:47:36.770Z,2.42
2022-09-06T09:48:39.578Z,2.70
2022-09-06T09:49:41.294Z,2.75
2022-09-06T09:50:43.032Z,2.47
2022-09-06T09:51:47.619Z,2.85
2022-09-06T09:52:49.289Z,2.50
2022-09-06T09:53:56.789Z,2.50
2022-09-06T09:55:04.306Z,2.50
2022-09-06T09:56:06.129Z,2.50
2022-09-06T09:57:12.150Z,2.22
2022-09-06T09:58:40.531Z,2.53
2022-09-06T09:59:57.407Z,2.20
2022-09-06T10:01:19.675Z,2.33
2022-09-06T10:02:35.723Z,2.28
2022-09-06T10:05:01.533Z,2.40
2022-09-06T10:06:04.164Z,2.50
2022-09-06T10:07:20.807Z,2.72
2022-09-06T10:08:24.941Z,2.45
2022-09-06T10:09:39.463Z,2.75
2022-09-06T10:10:46.779Z,2.53
2022-09-06T10:11:59.475Z,2.72
2022-09-06T10:13:20.802Z,2.40
2022-09-06T10:14:46.314Z,2.50
2022-09-06T10:15:49.650Z,2.70
2022-09-06T10:16:52.173Z,2.30
2022-09-06T10:17:53.863Z,2.95
2022-09-06T10:18:55.634Z,2.83
2022-09-06T10:20:01.853Z,2.72
2022-09-06T10:21:06.581Z,2.70
2022-09-06T10:22:27.522Z,2.58
2022-09-06T10:24:27.301Z,2.50
2022-09-06T10:25:51.413Z,2.40
2022-09-06T10:26:56.736Z,2.72
2022-09-06T10:28:43.990Z,2.40
2022-09-06T10:29:53.119Z,2.40
2022-09-06T10:31:27.200Z,2.75
2022-09-06T10:32:34.747Z,2.28
2022-09-06T10:33:48.218Z,2.80
2022-09-06T10:34:55.678Z,2.78
2022-09-06T10:35:58.748Z,2.30
2022-09-06T10:37:34.753Z,2.20
2022-09-06T10:39:04.418Z,2.30
2022-09-06T10:40:08.705Z,2.75
2022-09-06T10:41:42.147Z,2.58
2022-09-06T10:42:48.210Z,2.40
2022-09-06T10:44:04.197Z,2.50
2022-09-06T10:45:23.722Z,3.08
2022-09-06T10:46:26.781Z,2.60
2022-09-06T10:47:38.697Z,2.38
2022-09-06T10:48:45.737Z,2.58
2022-09-06T10:49:56.282Z,2.35
2022-09-06T10:51:18.929Z,2.58
2022-09-06T10:52:35.717Z,2.50
2022-09-06T10:53:46.559Z,2.33
2022-09-06T10:54:48.507Z,2.50
2022-09-06T10:56:01.710Z,2.33
2022-09-06T11:00:14.265Z,2.58
2022-09-06T11:01:47.835Z,2.25
2022-09-06T11:06:07.528Z,1.98
2022-09-06T11:07:29.458Z,2.30
2022-09-06T11:08:53.591Z,2.40
2022-09-06T11:10:20.409Z,2.28
2022-09-06T11:11:28.956Z,2.40
2022-09-06T11:12:44.311Z,2.42
2022-09-06T11:13:47.273Z,2.10
2022-09-06T11:14:48.949Z,2.17
2022-09-06T11:15:53.819Z,2.38
2022-09-06T11:17:04.873Z,2.60
2022-09-06T11:18:15.476Z,2.58
2022-09-06T11:19:32.935Z,2.35
2022-09-06T11:20:39.236Z,2.27
2022-09-06T11:22:08.100Z,2.60
2022-09-06T11:23:26.079Z,2.25
2022-09-06T11:24:40.841Z,2.10
2022-09-06T11:26:01.668Z,2.20
2022-09-06T11:27:12.247Z,2.08
2022-09-06T11:28:19.186Z,2.20
2022-09-06T11:29:26.881Z,2.10
2022-09-06T11:30:29.886Z,2.22
2022-09-06T11:33:30.377Z,2.00
2022-09-06T11:34:36.282Z,2.00
2022-09-06T11:35:40.473Z,2.20
2022-09-06T11:37:16.650Z,2.20
2022-09-06T11:38:26.481Z,2.40
2022-09-06T11:41:01.524Z,2.20
2022-09-06T11:42:08.151Z,1.90
2022-09-06T11:43:16.531Z,1.80
2022-09-06T11:44:49.311Z,2.15
2022-09-06T11:45:52.751Z,2.03
2022-09-06T11:46:54.505Z,2.03
2022-09-06T11:47:56.257Z,2.00
2022-09-06T11:49:05.616Z,2.20
2022-09-06T11:50:24.297Z,2.28
2022-09-06T11:51:41.497Z,2.22
2022-09-06T11:53:14.538Z,2.05
2022-09-06T11:54:19.337Z,2.08
2022-09-06T11:55:25.004Z,1.92
2022-09-06T11:56:51.804Z,2.15
2022-09-06T11:57:56.382Z,2.03
2022-09-06T11:59:08.021Z,2.20
2022-09-06T12:00:19.474Z,2.10
2022-09-06T12:01:21.160Z,2.13
2022-09-06T12:02:41.159Z,1.83
2022-09-06T12:04:05.927Z,2.10
2022-09-06T12:05:12.162Z,1.95
2022-09-06T12:06:33.023Z,2.30
2022-09-06T12:07:59.090Z,2.10
2022-09-06T12:09:01.315Z,2.05
2022-09-06T12:10:28.935Z,2.17
2022-09-06T12:11:46.397Z,2.03
2022-09-06T12:12:52.441Z,1.90
2022-09-06T12:14:07.749Z,1.95
2022-09-06T12:15:52.393Z,2.30
2022-09-06T12:17:04.769Z,1.80
2022-09-06T12:18:06.546Z,2.08
2022-09-06T12:19:08.342Z,2.10
2022-09-06T12:20:11.249Z,2.10
2022-09-06T12:21:38.849Z,1.95
2022-09-06T12:22:51.173Z,2.10
2022-09-06T12:23:52.844Z,1.83
2022-09-06T12:24:59.972Z,2.00
2022-09-06T12:26:10.863Z,1.98
2022-09-06T12:27:16.327Z,1.80
2022-09-06T12:28:27.292Z,1.95
2022-09-06T12:29:29.444Z,1.83
2022-09-06T12:30:37.092Z,1.73
2022-09-06T12:31:42.727Z,1.90
2022-09-06T12:32:49.576Z,2.08
2022-09-06T12:33:52.453Z,2.07
2022-09-06T12:36:22.576Z,1.88
2022-09-06T12:38:09.394Z,1.80
2022-09-06T12:39:14.413Z,2.08
2022-09-06T12:40:19.515Z,1.67
2022-09-06T12:41:22.556Z,1.90
2022-09-06T12:42:24.302Z,1.88
2022-09-06T12:43:26.976Z,1.95
2022-09-06T12:44:35.904Z,1.88
2022-09-06T12:45:46.813Z,1.80
2022-09-06T12:46:51.536Z,2.00
2022-09-06T12:48:08.758Z,2.08
2022-09-06T12:49:12.350Z,1.83
2022-09-06T12:50:17.787Z,1.77
2022-09-06T12:51:21.533Z,1.85
2022-09-06T12:52:23.411Z,1.77
2022-09-06T12:53:26.538Z,2.00
2022-09-06T12:54:28.976Z,2.25
2022-09-06T12:55:34.046Z,2.10
2022-09-06T12:56:35.841Z,2.00
2022-09-06T12:57:46.625Z,1.80
2022-09-06T12:58:48.421Z,1.58
2022-09-06T12:59:57.553Z,1.67
2022-09-06T13:01:09.466Z,1.75
2022-09-06T13:02:18.094Z,1.50
2022-09-06T13:03:35.971Z,1.88
2022-09-06T13:04:43.795Z,1.75
2022-09-06T13:05:45.775Z,1.77
2022-09-06T13:06:48.446Z,1.70
2022-09-06T13:07:54.311Z,1.83
2022-09-06T13:08:58.477Z,1.63
2022-09-06T13:10:00.424Z,1.65
2022-09-06T13:11:07.973Z,1.75
2022-09-06T13:12:26.255Z,1.70
2022-09-06T13:13:28.755Z,1.70
2022-09-06T13:14:32.521Z,1.63
2022-09-06T13:15:34.383Z,1.77
2022-09-06T13:16:42.076Z,1.65
2022-09-06T13:17:43.822Z,1.60
2022-09-06T13:18:45.527Z,1.80
2022-09-06T13:19:48.111Z,1.77
2022-09-06T13:21:03.204Z,2.03
2022-09-06T13:22:10.897Z,1.70
2022-09-06T13:23:20.767Z,1.90
2022-09-06T13:24:47.687Z,1.63
2022-09-06T13:25:51.636Z,1.80
2022-09-06T13:26:54.404Z,1.75
2022-09-06T13:27:58.056Z,1.90
2022-09-06T13:29:28.899Z,1.20
2022-09-06T13:30:35.839Z,1.03
2022-09-06T13:31:37.760Z,1.10
2022-09-06T13:32:47.509Z,0.80
2022-09-06T13:33:59.612Z,0.60
2022-09-06T13:35:01.720Z,0.68
2022-09-06T13:36:15.304Z,1.60
2022-09-06T13:37:17.065Z,0.70
2022-09-06T13:38:31.965Z,1.00
2022-09-06T13:39:43.880Z,0.82
2022-09-06T13:41:10.569Z,0.90
2022-09-06T13:42:10.813Z,1.10
2022-09-06T13:43:13.070Z,1.20
2022-09-06T13:44:14.696Z,1.23
2022-09-06T13:45:27.965Z,1.85
2022-09-06T13:46:30.175Z,2.03
2022-09-06T13:47:31.915Z,1.55
2022-09-06T13:48:34.149Z,1.80
2022-09-06T13:49:35.837Z,1.83
2022-09-06T13:50:37.516Z,2.38
2022-09-06T13:51:41.443Z,1.88
2022-09-06T13:52:43.226Z,1.70
2022-09-06T13:53:44.936Z,1.98
2022-09-06T13:54:47.875Z,1.90
2022-09-06T13:55:49.688Z,1.75
2022-09-06T13:56:51.411Z,1.92
2022-09-06T13:57:53.088Z,1.85
2022-09-06T13:58:54.768Z,2.10
2022-09-06T13:59:56.435Z,1.80
2022-09-06T14:00:58.773Z,2.00
2022-09-06T14:02:09.813Z,2.03
2022-09-06T14:03:22.539Z,2.23
2022-09-06T14:04:25.473Z,2.28
2022-09-06T14:05:27.152Z,1.92
2022-09-06T14:06:29.071Z,1.90
2022-09-06T14:07:31.688Z,2.20
2022-09-06T14:08:55.760Z,2.53
2022-09-06T14:09:55.611Z,2.80
2022-09-06T14:10:57.298Z,2.35
2022-09-06T14:11:59.188Z,2.60
2022-09-06T14:13:00.885Z,2.47
2022-09-06T14:14:02.784Z,2.70
2022-09-06T14:15:05.828Z,2.67
2022-09-06T14:16:07.710Z,2.63
2022-09-06T14:17:09.459Z,2.67
2022-09-06T14:18:14.364Z,2.70
2022-09-06T14:19:16.671Z,2.80
2022-09-06T14:20:18.503Z,2.42
2022-09-06T14:21:20.540Z,2.63
2022-09-06T14:22:22.295Z,2.80
2022-09-06T14:23:24.997Z,2.67
2022-09-06T14:24:26.712Z,2.43
2022-09-06T14:25:28.872Z,2.50
2022-09-06T14:26:31.435Z,2.70
2022-09-06T14:27:35.228Z,2.50
2022-09-06T14:28:36.920Z,2.10
2022-09-06T14:29:39.614Z,2.20
2022-09-06T14:30:41.473Z,2.30
2022-09-06T14:31:43.255Z,2.30
2022-09-06T14:32:45.113Z,2.38
2022-09-06T14:33:47.430Z,2.25
2022-09-06T14:34:49.165Z,2.40
2022-09-06T14:35:50.879Z,2.50
2022-09-06T14:36:52.828Z,2.22
2022-09-06T14:37:54.516Z,2.20
2022-09-06T14:38:58.417Z,2.30
2022-09-06T14:40:00.526Z,2.60
2022-09-06T14:41:06.791Z,2.60
2022-09-06T14:42:09.040Z,2.35
2022-09-06T14:43:11.374Z,2.15
2022-09-06T14:44:13.077Z,2.10
2022-09-06T14:45:14.851Z,2.37
2022-09-06T14:46:18.227Z,2.33
2022-09-06T14:47:19.995Z,2.70
2022-09-06T14:48:28.280Z,2.65
2022-09-06T14:49:30.116Z,2.40
2022-09-06T14:50:31.852Z,2.47
2022-09-06T14:51:34.752Z,3.05
2022-09-06T14:52:36.611Z,2.50
2022-09-06T14:53:41.126Z,2.90
2022-09-06T14:54:42.957Z,2.60
2022-09-06T14:55:44.666Z,2.63
2022-09-06T14:56:46.403Z,2.90
2022-09-06T14:57:48.130Z,3.05
2022-09-06T14:58:50.049Z,3.10
2022-09-06T14:59:52.255Z,3.20
2022-09-06T15:00:53.987Z,2.97
2022-09-06T15:01:55.848Z,3.10
2022-09-06T15:02:57.678Z,3.45
2022-09-06T15:04:02.933Z,3.03
2022-09-06T15:05:05.810Z,2.92
2022-09-06T15:06:08.274Z,3.27
2022-09-06T15:07:10.426Z,2.92
2022-09-06T15:08:12.121Z,3.05
2022-09-06T15:09:15.196Z,2.85
2022-09-06T15:10:16.968Z,3.03
2022-09-06T15:11:53.867Z,3.05
2022-09-06T15:12:55.595Z,2.90
2022-09-06T15:13:58.128Z,3.00
2022-09-06T15:14:59.913Z,3.20
2022-09-06T15:16:01.725Z,3.10